Harvest Plains — V7UV8 — position and weather

sailwx.info

Track history (hours):
 
Tides and Currents Weather Stations Pressure Air Temp Water Temp Dewpoint Dewpoint Depression Visibility Wind Speed Wind Dir Waves Ship Positions

Harvest Plains

Last reported at 2017-Oct-02 05:56 UTC. Time now 2017-Oct-20 16:19 UTC.
Position N 30°52' E 032°19'.
Warning: this ship's position is 18 days out of date.

Length 189 m; draft 12.1 m.

Type: Cargo ship. MMSI: 538004043.

Date/timePositionNaut miles runAvg speedWind from/ knotsBaromVisibWave heightAir tempDewpointWater temp
2017-Oct-02 05:56N 30°52' E 032°19'4 9.9
2017-Oct-02 05:30N 30°56' E 032°19'5 9.2
2017-Oct-02 05:00N 31°00' E 032°19'4 8.1
2017-Oct-02 04:30N 31°05' E 032°19'  
2017-Sep-27 21:36N 35°53' E 014°47'0 1.6
2017-Sep-27 21:29N 35°53' E 014°47'0 0.2
2017-Sep-27 20:55N 35°53' E 014°47'0 0.0
2017-Sep-27 20:22N 35°53' E 014°47'0 0.0
2017-Sep-27 19:58N 35°53' E 014°47'0 0.0
2017-Sep-27 19:28N 35°53' E 014°47'0 0.0
2017-Sep-27 18:58N 35°53' E 014°47'0 0.0
2017-Sep-27 18:25N 35°53' E 014°47'0 0.0
2017-Sep-27 17:55N 35°53' E 014°47'0 0.0
2017-Sep-27 17:28N 35°53' E 014°47'0 0.0
2017-Sep-27 16:58N 35°53' E 014°47'0 0.0
2017-Sep-27 16:28N 35°53' E 014°47'0 0.1
2017-Sep-27 15:58N 35°53' E 014°47'0 0.0
2017-Sep-27 15:28N 35°53' E 014°47'0 0.0
2017-Sep-27 14:58N 35°53' E 014°47'0 0.0
2017-Sep-27 14:28N 35°53' E 014°47'0 0.0
2017-Sep-27 13:58N 35°53' E 014°47'0 0.0
2017-Sep-27 13:25N 35°53' E 014°47'0 0.0
2017-Sep-27 12:58N 35°53' E 014°47'0 0.0
2017-Sep-27 12:27N 35°53' E 014°47'0 0.3
2017-Sep-27 12:00N 35°53' E 014°47'3 5.7
2017-Sep-27 11:31N 35°55' E 014°44'5 9.2
2017-Sep-27 11:00N 35°57' E 014°39'5 9.3
2017-Sep-27 10:30N 35°60' E 014°35'5 9.2
2017-Sep-27 10:00N 36°03' E 014°30'5 9.5
2017-Sep-27 09:30N 36°06' E 014°26'611.0
2017-Sep-27 09:00N 36°09' E 014°20'612.4
2017-Sep-27 08:30N 36°12' E 014°13'612.6
2017-Sep-27 08:00N 36°14' E 014°06'612.6
2017-Sep-27 07:30N 36°17' E 013°59'39812.4
2017-Sep-25 23:25N 37°14' E 005°47'1212.9
2017-Sep-25 22:28N 37°13' E 005°32'613.0
2017-Sep-25 21:59N 37°13' E 005°24'713.1
2017-Sep-25 21:28N 37°12' E 005°16'613.1
2017-Sep-25 21:00N 37°11' E 005°08'613.1
2017-Sep-25 20:30N 37°11' E 004°60'713.1
2017-Sep-25 20:00N 37°10' E 004°52'713.2
2017-Sep-25 19:30N 37°10' E 004°44'713.1
2017-Sep-25 18:58N 37°09' E 004°35'912.9
2017-Sep-25 18:15N 37°08' E 004°23'412.7
2017-Sep-25 17:57N 37°08' E 004°18'612.6
2017-Sep-25 17:30N 37°07' E 004°11'2612.5
2017-Sep-25 15:27N 37°05' E 003°39'613.1
2017-Sep-25 15:00N 37°04' E 003°32'713.3
2017-Sep-25 14:30N 37°04' E 003°24'913.4
2017-Sep-25 13:52N 37°03' E 003°13'913.3
2017-Sep-25 13:14N 37°02' E 003°03'313.2
2017-Sep-25 12:59N 37°02' E 002°59'613.1
2017-Sep-25 12:30N 37°01' E 002°51'613.0
2017-Sep-25 12:01N 36°60' E 002°43'812.8
2017-Sep-25 11:24N 36°58' E 002°33'3713.0
2017-Sep-25 08:30N 36°52' E 001°47'812.9
2017-Sep-25 07:55N 36°51' E 001°38'512.6
2017-Sep-25 07:29N 36°51' E 001°31'612.4
2017-Sep-25 07:00N 36°49' E 001°23'612.5
2017-Sep-25 06:31N 36°48' E 001°16'612.6
2017-Sep-25 06:00N 36°47' E 001°08'1112.9
2017-Sep-25 05:08N 36°46' E 000°54'213.2
2017-Sep-25 05:00N 36°46' E 000°52'713.3
2017-Sep-25 04:31N 36°45' E 000°44'713.2
2017-Sep-25 04:01N 36°43' E 000°36'713.3
2017-Sep-25 03:30N 36°42' E 000°27'713.3
2017-Sep-25 03:00N 36°41' E 000°19'913.4
2017-Sep-25 02:21N 36°40' E 000°08'413.1
2017-Sep-25 02:00N 36°40' E 000°03'612.9
2017-Sep-25 01:30N 36°39' W 000°05'712.9
2017-Sep-25 00:59N 36°39' W 000°14'612.8
2017-Sep-25 00:30N 36°38' W 000°21'812.9
2017-Sep-24 23:54N 36°37' W 000°31'512.9
2017-Sep-24 23:30N 36°35' W 000°37'612.7
2017-Sep-24 23:00N 36°33' W 000°44'612.6
2017-Sep-24 22:30N 36°32' W 000°52'1612.9
2017-Sep-24 21:15N 36°29' W 001°12'513.6
2017-Sep-24 20:55N 36°29' W 001°17'613.8
2017-Sep-24 20:31N 36°28' W 001°24'713.9
2017-Sep-24 20:00N 36°27' W 001°33'17813.4
2017-Sep-24 06:44N 35°60' W 005°11'313.1
2017-Sep-24 06:30N 35°59' W 005°15'713.6
2017-Sep-24 06:00N 35°58' W 005°23'612.9
2017-Sep-24 05:30N 35°57' W 005°31'611.7
2017-Sep-24 04:58N 35°55' W 005°38'611.6
2017-Sep-24 04:25N 35°55' W 005°46'511.7
2017-Sep-24 03:59N 35°55' W 005°52'  
Track history (hours):
 
Tides and Currents Weather Stations Pressure Air Temp Water Temp Dewpoint Dewpoint Depression Visibility Wind Speed Wind Dir Waves Ship Positions

Harvest Plains

Last reported at 2017-Oct-02 05:56 UTC. Time now 2017-Oct-20 16:19 UTC.
Position N 30°52' E 032°19'.
Warning: this ship's position is 18 days out of date.

Length 189 m; draft 12.1 m.

Type: Cargo ship. MMSI: 538004043.

Date/timePositionNaut miles runAvg speedWind from/ knotsBaromVisibWave heightAir tempDewpointWater temp
2017-Oct-02 05:56N 30°52' E 032°19'4 9.9
2017-Oct-02 05:30N 30°56' E 032°19'5 9.2
2017-Oct-02 05:00N 31°00' E 032°19'4 8.1
2017-Oct-02 04:30N 31°05' E 032°19'  
2017-Sep-27 21:36N 35°53' E 014°47'0 1.6
2017-Sep-27 21:29N 35°53' E 014°47'0 0.2
2017-Sep-27 20:55N 35°53' E 014°47'0 0.0
2017-Sep-27 20:22N 35°53' E 014°47'0 0.0
2017-Sep-27 19:58N 35°53' E 014°47'0 0.0
2017-Sep-27 19:28N 35°53' E 014°47'0 0.0
2017-Sep-27 18:58N 35°53' E 014°47'0 0.0
2017-Sep-27 18:25N 35°53' E 014°47'0 0.0
2017-Sep-27 17:55N 35°53' E 014°47'0 0.0
2017-Sep-27 17:28N 35°53' E 014°47'0 0.0
2017-Sep-27 16:58N 35°53' E 014°47'0 0.0
2017-Sep-27 16:28N 35°53' E 014°47'0 0.1
2017-Sep-27 15:58N 35°53' E 014°47'0 0.0
2017-Sep-27 15:28N 35°53' E 014°47'0 0.0
2017-Sep-27 14:58N 35°53' E 014°47'0 0.0
2017-Sep-27 14:28N 35°53' E 014°47'0 0.0
2017-Sep-27 13:58N 35°53' E 014°47'0 0.0
2017-Sep-27 13:25N 35°53' E 014°47'0 0.0
2017-Sep-27 12:58N 35°53' E 014°47'0 0.0
2017-Sep-27 12:27N 35°53' E 014°47'0 0.3
2017-Sep-27 12:00N 35°53' E 014°47'3 5.7
2017-Sep-27 11:31N 35°55' E 014°44'5 9.2
2017-Sep-27 11:00N 35°57' E 014°39'5 9.3
2017-Sep-27 10:30N 35°60' E 014°35'5 9.2
2017-Sep-27 10:00N 36°03' E 014°30'5 9.5
2017-Sep-27 09:30N 36°06' E 014°26'611.0
2017-Sep-27 09:00N 36°09' E 014°20'612.4
2017-Sep-27 08:30N 36°12' E 014°13'612.6
2017-Sep-27 08:00N 36°14' E 014°06'612.6
2017-Sep-27 07:30N 36°17' E 013°59'39812.4
2017-Sep-25 23:25N 37°14' E 005°47'1212.9
2017-Sep-25 22:28N 37°13' E 005°32'613.0
2017-Sep-25 21:59N 37°13' E 005°24'713.1
2017-Sep-25 21:28N 37°12' E 005°16'613.1
2017-Sep-25 21:00N 37°11' E 005°08'613.1
2017-Sep-25 20:30N 37°11' E 004°60'713.1
2017-Sep-25 20:00N 37°10' E 004°52'713.2
2017-Sep-25 19:30N 37°10' E 004°44'713.1
2017-Sep-25 18:58N 37°09' E 004°35'912.9
2017-Sep-25 18:15N 37°08' E 004°23'412.7
2017-Sep-25 17:57N 37°08' E 004°18'612.6
2017-Sep-25 17:30N 37°07' E 004°11'2612.5
2017-Sep-25 15:27N 37°05' E 003°39'613.1
2017-Sep-25 15:00N 37°04' E 003°32'713.3
2017-Sep-25 14:30N 37°04' E 003°24'913.4
2017-Sep-25 13:52N 37°03' E 003°13'913.3
2017-Sep-25 13:14N 37°02' E 003°03'313.2
2017-Sep-25 12:59N 37°02' E 002°59'613.1
2017-Sep-25 12:30N 37°01' E 002°51'613.0
2017-Sep-25 12:01N 36°60' E 002°43'812.8
2017-Sep-25 11:24N 36°58' E 002°33'3713.0
2017-Sep-25 08:30N 36°52' E 001°47'812.9
2017-Sep-25 07:55N 36°51' E 001°38'512.6
2017-Sep-25 07:29N 36°51' E 001°31'612.4
2017-Sep-25 07:00N 36°49' E 001°23'612.5
2017-Sep-25 06:31N 36°48' E 001°16'612.6
2017-Sep-25 06:00N 36°47' E 001°08'1112.9
2017-Sep-25 05:08N 36°46' E 000°54'213.2
2017-Sep-25 05:00N 36°46' E 000°52'713.3
2017-Sep-25 04:31N 36°45' E 000°44'713.2
2017-Sep-25 04:01N 36°43' E 000°36'713.3
2017-Sep-25 03:30N 36°42' E 000°27'713.3
2017-Sep-25 03:00N 36°41' E 000°19'913.4
2017-Sep-25 02:21N 36°40' E 000°08'413.1
2017-Sep-25 02:00N 36°40' E 000°03'612.9
2017-Sep-25 01:30N 36°39' W 000°05'712.9
2017-Sep-25 00:59N 36°39' W 000°14'612.8
2017-Sep-25 00:30N 36°38' W 000°21'812.9
2017-Sep-24 23:54N 36°37' W 000°31'512.9
2017-Sep-24 23:30N 36°35' W 000°37'612.7
2017-Sep-24 23:00N 36°33' W 000°44'612.6
2017-Sep-24 22:30N 36°32' W 000°52'1612.9
2017-Sep-24 21:15N 36°29' W 001°12'513.6
2017-Sep-24 20:55N 36°29' W 001°17'613.8
2017-Sep-24 20:31N 36°28' W 001°24'713.9
2017-Sep-24 20:00N 36°27' W 001°33'17813.4
2017-Sep-24 06:44N 35°60' W 005°11'313.1
2017-Sep-24 06:30N 35°59' W 005°15'713.6
2017-Sep-24 06:00N 35°58' W 005°23'612.9
2017-Sep-24 05:30N 35°57' W 005°31'611.7
2017-Sep-24 04:58N 35°55' W 005°38'611.6
2017-Sep-24 04:25N 35°55' W 005°46'511.7
2017-Sep-24 03:59N 35°55' W 005°52'  

Dump ship's entire track history